Terminal Aerodrome Forecast
Issued by NWS

Home | Current Version | Previous Version | Text Only | Print | Product List | Glossary On
Versions: 1 2 3 4 5 6 7 8 9 10 11 12 13 14 15 16 17 18 19 20 21 22 23
000
FTUS41 KGYX 281720
TAFLEB
TAF
KLEB 281720Z 2818/2918 33011G19KT P6SM BKN050
     FM282300 36004KT P6SM SCT050 BKN100
     FM291200 33010KT P6SM BKN050=

USA.gov is the U.S. government's official web portal to all federal, state and local government web resources and services.